sensor_id;sensor_type;location;lat;lon;timestamp;pressure;altitude;pressure_sealevel;temperature;humidity
22181;BME280;11256;50.830;12.834;2024-03-08T00:02:02;98026.78;;;2.14;61.92
22181;BME280;11256;50.830;12.834;2024-03-08T00:07:02;98013.25;;;2.09;61.95
22181;BME280;11256;50.830;12.834;2024-03-08T00:12:03;98026.38;;;2.10;62.13
22181;BME280;11256;50.830;12.834;2024-03-08T00:17:03;98021.31;;;2.02;62.28
22181;BME280;11256;50.830;12.834;2024-03-08T00:22:04;98013.75;;;1.99;61.88
22181;BME280;11256;50.830;12.834;2024-03-08T00:27:04;98015.00;;;1.97;61.71
22181;BME280;11256;50.830;12.834;2024-03-08T00:32:06;98009.91;;;1.89;62.19
22181;BME280;11256;50.830;12.834;2024-03-08T00:37:08;98013.03;;;1.86;62.10
22181;BME280;11256;50.830;12.834;2024-03-08T00:42:09;98016.72;;;1.85;61.67
22181;BME280;11256;50.830;12.834;2024-03-08T00:47:09;98012.84;;;1.81;61.67
22181;BME280;11256;50.830;12.834;2024-03-08T00:52:09;98007.34;;;1.76;62.15
22181;BME280;11256;50.830;12.834;2024-03-08T00:57:11;98010.44;;;1.73;62.09
22181;BME280;11256;50.830;12.834;2024-03-08T01:02:11;97987.31;;;1.60;61.98
22181;BME280;11256;50.830;12.834;2024-03-08T01:07:12;97991.41;;;1.63;62.27
22181;BME280;11256;50.830;12.834;2024-03-08T01:12:12;97994.53;;;1.60;62.28
22181;BME280;11256;50.830;12.834;2024-03-08T01:17:12;97989.00;;;1.55;62.05
22181;BME280;11256;50.830;12.834;2024-03-08T01:22:13;97974.44;;;1.51;62.15
22181;BME280;11256;50.830;12.834;2024-03-08T01:27:13;97973.84;;;1.49;61.85
22181;BME280;11256;50.830;12.834;2024-03-08T01:32:14;97971.41;;;1.47;62.17
22181;BME280;11256;50.830;12.834;2024-03-08T01:37:14;97956.47;;;1.40;61.88
22181;BME280;11256;50.830;12.834;2024-03-08T01:42:15;97950.94;;;1.35;61.81
22181;BME280;11256;50.830;12.834;2024-03-08T01:47:17;97946.47;;;1.29;61.69
22181;BME280;11256;50.830;12.834;2024-03-08T01:52:18;97939.09;;;1.31;62.22
22181;BME280;11256;50.830;12.834;2024-03-08T01:57:21;97933.13;;;1.29;61.73
22181;BME280;11256;50.830;12.834;2024-03-08T02:02:21;97925.13;;;1.29;62.17
22181;BME280;11256;50.830;12.834;2024-03-08T02:07:22;97927.63;;;1.24;62.21
22181;BME280;11256;50.830;12.834;2024-03-08T02:12:22;97924.38;;;1.22;62.24
22181;BME280;11256;50.830;12.834;2024-03-08T02:17:22;97923.97;;;1.18;61.92
22181;BME280;11256;50.830;12.834;2024-03-08T02:22:23;97915.59;;;1.15;61.88
22181;BME280;11256;50.830;12.834;2024-03-08T02:27:24;97918.69;;;1.12;62.16
22181;BME280;11256;50.830;12.834;2024-03-08T02:32:25;97915.84;;;1.07;62.34
22181;BME280;11256;50.830;12.834;2024-03-08T02:37:26;97901.28;;;1.03;62.17
22181;BME280;11256;50.830;12.834;2024-03-08T02:42:26;97905.44;;;0.99;61.81
22181;BME280;11256;50.830;12.834;2024-03-08T02:47:27;97919.38;;;1.01;62.08
22181;BME280;11256;50.830;12.834;2024-03-08T02:52:31;97917.56;;;0.95;61.79
22181;BME280;11256;50.830;12.834;2024-03-08T02:57:31;97917.56;;;0.95;62.24
22181;BME280;11256;50.830;12.834;2024-03-08T03:02:33;97897.06;;;0.89;62.13
22181;BME280;11256;50.830;12.834;2024-03-08T03:07:33;97903.69;;;0.80;62.41
22181;BME280;11256;50.830;12.834;2024-03-08T03:12:33;97902.03;;;0.85;62.04
22181;BME280;11256;50.830;12.834;2024-03-08T03:17:34;97895.09;;;0.78;62.11
22181;BME280;11256;50.830;12.834;2024-03-08T03:22:34;97886.09;;;0.72;62.26
22181;BME280;11256;50.830;12.834;2024-03-08T03:27:35;97900.03;;;0.74;62.27
22181;BME280;11256;50.830;12.834;2024-03-08T03:32:35;97885.69;;;0.69;62.39
22181;BME280;11256;50.830;12.834;2024-03-08T03:37:47;97884.28;;;0.66;62.06
22181;BME280;11256;50.830;12.834;2024-03-08T03:43:07;97891.47;;;0.66;62.16
22181;BME280;11256;50.830;12.834;2024-03-08T03:48:07;97895.16;;;0.65;62.19
22181;BME280;11256;50.830;12.834;2024-03-08T03:53:11;97893.13;;;0.60;62.47
22181;BME280;11256;50.830;12.834;2024-03-08T03:58:11;97896.81;;;0.59;62.33
22181;BME280;11256;50.830;12.834;2024-03-08T04:03:11;97888.25;;;0.57;62.14
22181;BME280;11256;50.830;12.834;2024-03-08T04:08:12;97876.16;;;0.55;62.65
22181;BME280;11256;50.830;12.834;2024-03-08T04:13:12;97872.28;;;0.51;62.82
22181;BME280;11256;50.830;12.834;2024-03-08T04:18:13;97871.44;;;0.50;62.50
22181;BME280;11256;50.830;12.834;2024-03-08T04:23:14;97859.16;;;0.43;62.71
22181;BME280;11256;50.830;12.834;2024-03-08T04:28:14;97865.75;;;0.40;62.67
22181;BME280;11256;50.830;12.834;2024-03-08T04:33:14;97860.03;;;0.37;62.80
22181;BME280;11256;50.830;12.834;2024-03-08T04:38:16;97861.06;;;0.36;62.75
22181;BME280;11256;50.830;12.834;2024-03-08T04:43:17;97853.50;;;0.33;62.91
22181;BME280;11256;50.830;12.834;2024-03-08T04:48:19;97851.84;;;0.32;63.07
22181;BME280;11256;50.830;12.834;2024-03-08T04:53:20;97850.66;;;0.28;62.96
22181;BME280;11256;50.830;12.834;2024-03-08T04:58:20;97858.84;;;0.26;62.81
22181;BME280;11256;50.830;12.834;2024-03-08T05:03:21;97851.06;;;0.25;63.37
22181;BME280;11256;50.830;12.834;2024-03-08T05:08:21;97844.50;;;0.21;63.11
22181;BME280;11256;50.830;12.834;2024-03-08T05:13:21;97852.50;;;0.21;63.00
22181;BME280;11256;50.830;12.834;2024-03-08T05:18:23;97841.66;;;0.16;63.39
22181;BME280;11256;50.830;12.834;2024-03-08T05:23:23;97838.00;;;0.10;62.68
22181;BME280;11256;50.830;12.834;2024-03-08T05:28:24;97832.47;;;0.12;63.07
22181;BME280;11256;50.830;12.834;2024-03-08T05:33:24;97831.47;;;0.06;63.13
22181;BME280;11256;50.830;12.834;2024-03-08T05:38:25;97831.06;;;0.03;63.36
22181;BME280;11256;50.830;12.834;2024-03-08T05:43:25;97834.78;;;0.02;63.39
22181;BME280;11256;50.830;12.834;2024-03-08T05:48:25;97842.75;;;0.02;63.27
22181;BME280;11256;50.830;12.834;2024-03-08T05:53:26;97836.84;;;0.00;63.21
22181;BME280;11256;50.830;12.834;2024-03-08T05:58:26;97831.50;;;0.00;63.59
22181;BME280;11256;50.830;12.834;2024-03-08T06:03:27;97833.72;;;0.03;63.34
22181;BME280;11256;50.830;12.834;2024-03-08T06:08:27;97822.88;;;0.04;63.49
22181;BME280;11256;50.830;12.834;2024-03-08T06:13:29;97835.94;;;0.12;63.41
22181;BME280;11256;50.830;12.834;2024-03-08T06:18:31;97828.31;;;0.22;63.83
22181;BME280;11256;50.830;12.834;2024-03-08T06:23:32;97821.44;;;0.46;64.25
22181;BME280;11256;50.830;12.834;2024-03-08T06:28:33;97817.06;;;0.89;64.49
22181;BME280;11256;50.830;12.834;2024-03-08T06:33:34;97823.81;;;1.65;66.53
22181;BME280;11256;50.830;12.834;2024-03-08T06:38:35;97820.78;;;2.45;67.60
22181;BME280;11256;50.830;12.834;2024-03-08T06:43:35;97824.66;;;3.42;67.59
22181;BME280;11256;50.830;12.834;2024-03-08T06:48:36;97806.72;;;4.40;66.98
22181;BME280;11256;50.830;12.834;2024-03-08T06:53:37;97805.44;;;5.48;66.14
22181;BME280;11256;50.830;12.834;2024-03-08T06:58:38;97804.31;;;6.63;65.03
22181;BME280;11256;50.830;12.834;2024-03-08T07:03:39;97810.44;;;7.69;63.49
22181;BME280;11256;50.830;12.834;2024-03-08T07:08:43;97809.69;;;8.82;62.46
22181;BME280;11256;50.830;12.834;2024-03-08T07:13:46;97801.13;;;9.90;60.80
22181;BME280;11256;50.830;12.834;2024-03-08T07:18:46;97797.56;;;10.88;58.65
22181;BME280;11256;50.830;12.834;2024-03-08T07:23:46;97797.84;;;11.97;57.63
22181;BME280;11256;50.830;12.834;2024-03-08T07:28:53;97802.09;;;13.02;55.67
22181;BME280;11256;50.830;12.834;2024-03-08T07:33:57;97795.78;;;13.75;53.80
22181;BME280;11256;50.830;12.834;2024-03-08T07:38:58;97799.59;;;14.52;51.91
22181;BME280;11256;50.830;12.834;2024-03-08T07:43:59;97793.25;;;15.05;50.52
22181;BME280;11256;50.830;12.834;2024-03-08T07:49:03;97789.84;;;15.71;47.37
22181;BME280;11256;50.830;12.834;2024-03-08T07:54:04;97791.50;;;16.33;47.02
22181;BME280;11256;50.830;12.834;2024-03-08T07:59:04;97782.09;;;16.78;44.97
22181;BME280;11256;50.830;12.834;2024-03-08T08:04:05;97778.13;;;17.01;43.76
22181;BME280;11256;50.830;12.834;2024-03-08T08:09:05;97774.78;;;17.38;42.77
22181;BME280;11256;50.830;12.834;2024-03-08T08:14:05;97778.69;;;17.71;41.90
22181;BME280;11256;50.830;12.834;2024-03-08T08:19:06;97760.44;;;17.66;36.56
22181;BME280;11256;50.830;12.834;2024-03-08T08:24:07;97765.41;;;17.90;39.99
22181;BME280;11256;50.830;12.834;2024-03-08T08:29:08;97770.66;;;18.20;35.38
22181;BME280;11256;50.830;12.834;2024-03-08T08:34:11;97763.06;;;18.26;38.30
22181;BME280;11256;50.830;12.834;2024-03-08T08:39:11;97769.03;;;18.28;35.53
22181;BME280;11256;50.830;12.834;2024-03-08T08:44:13;97759.53;;;18.17;35.64
22181;BME280;11256;50.830;12.834;2024-03-08T08:49:15;97756.13;;;18.37;36.66
22181;BME280;11256;50.830;12.834;2024-03-08T08:54:19;97751.78;;;18.27;36.51
22181;BME280;11256;50.830;12.834;2024-03-08T08:59:20;97741.13;;;18.26;35.49
22181;BME280;11256;50.830;12.834;2024-03-08T09:04:23;97733.78;;;18.55;36.08
22181;BME280;11256;50.830;12.834;2024-03-08T09:09:23;97726.53;;;18.42;34.58
22181;BME280;11256;50.830;12.834;2024-03-08T09:14:25;97733.78;;;18.55;35.33
22181;BME280;11256;50.830;12.834;2024-03-08T09:19:26;97731.34;;;17.99;34.52
22181;BME280;11256;50.830;12.834;2024-03-08T09:24:26;97722.88;;;17.16;34.27
22181;BME280;11256;50.830;12.834;2024-03-08T09:29:29;97712.03;;;17.87;35.52
22181;BME280;11256;50.830;12.834;2024-03-08T09:34:29;97701.31;;;17.40;35.39
22181;BME280;11256;50.830;12.834;2024-03-08T09:39:30;97705.56;;;17.83;35.55
22181;BME280;11256;50.830;12.834;2024-03-08T09:44:30;97693.69;;;17.37;34.49
22181;BME280;11256;50.830;12.834;2024-03-08T09:49:30;97696.13;;;17.47;35.01
22181;BME280;11256;50.830;12.834;2024-03-08T09:54:31;97683.88;;;17.02;35.68
22181;BME280;11256;50.830;12.834;2024-03-08T09:59:31;97678.88;;;17.38;36.00
22181;BME280;11256;50.830;12.834;2024-03-08T10:04:39;97664.25;;;17.00;34.59
22181;BME280;11256;50.830;12.834;2024-03-08T10:09:42;97668.03;;;16.48;35.05
22181;BME280;11256;50.830;12.834;2024-03-08T10:14:49;97662.38;;;15.66;36.05
22181;BME280;11256;50.830;12.834;2024-03-08T10:19:50;97668.50;;;14.84;36.87
22181;BME280;11256;50.830;12.834;2024-03-08T10:24:51;97658.47;;;13.17;38.49
22181;BME280;11256;50.830;12.834;2024-03-08T10:29:52;97649.81;;;12.41;39.59
22181;BME280;11256;50.830;12.834;2024-03-08T10:34:52;97650.22;;;11.88;40.63
22181;BME280;11256;50.830;12.834;2024-03-08T10:40:02;97652.72;;;11.56;41.39
22181;BME280;11256;50.830;12.834;2024-03-08T10:45:22;97640.16;;;10.74;42.47
22181;BME280;11256;50.830;12.834;2024-03-08T10:50:23;97640.63;;;10.48;43.95
22181;BME280;11256;50.830;12.834;2024-03-08T10:55:25;97628.66;;;10.00;44.85
22181;BME280;11256;50.830;12.834;2024-03-08T11:00:26;97632.75;;;9.93;45.48
22181;BME280;11256;50.830;12.834;2024-03-08T11:05:40;97631.97;;;9.82;45.54
22181;BME280;11256;50.830;12.834;2024-03-08T11:10:54;97628.25;;;9.68;44.95
22181;BME280;11256;50.830;12.834;2024-03-08T11:15:55;97614.50;;;9.55;47.00
22181;BME280;11256;50.830;12.834;2024-03-08T11:20:56;97614.00;;;9.48;46.39
22181;BME280;11256;50.830;12.834;2024-03-08T11:25:57;97610.22;;;9.39;46.06
22181;BME280;11256;50.830;12.834;2024-03-08T11:36:11;97584.31;;;9.23;47.29
22181;BME280;11256;50.830;12.834;2024-03-08T11:41:21;97589.31;;;9.64;50.82
22181;BME280;11256;50.830;12.834;2024-03-08T11:46:24;97576.09;;;9.53;48.83
22181;BME280;11256;50.830;12.834;2024-03-08T11:51:24;97558.84;;;9.39;47.64
22181;BME280;11256;50.830;12.834;2024-03-08T11:56:27;97552.47;;;9.73;48.20
22181;BME280;11256;50.830;12.834;2024-03-08T12:01:27;97554.34;;;9.78;46.51
22181;BME280;11256;50.830;12.834;2024-03-08T12:06:37;97548.72;;;9.64;46.92
22181;BME280;11256;50.830;12.834;2024-03-08T12:11:41;97526.16;;;9.84;47.75
22181;BME280;11256;50.830;12.834;2024-03-08T12:16:43;97541.34;;;9.80;45.42
22181;BME280;11256;50.830;12.834;2024-03-08T12:21:43;97526.78;;;9.71;45.28
22181;BME280;11256;50.830;12.834;2024-03-08T12:26:48;97531.09;;;9.72;46.79
22181;BME280;11256;50.830;12.834;2024-03-08T12:31:53;97520.56;;;9.70;47.20
22181;BME280;11256;50.830;12.834;2024-03-08T12:36:54;97527.69;;;10.05;46.76
22181;BME280;11256;50.830;12.834;2024-03-08T12:41:55;97509.84;;;10.04;45.42
22181;BME280;11256;50.830;12.834;2024-03-08T12:46:57;97497.91;;;10.00;45.22
22181;BME280;11256;50.830;12.834;2024-03-08T12:51:58;97490.28;;;10.12;47.25
22181;BME280;11256;50.830;12.834;2024-03-08T12:56:59;97485.59;;;10.22;47.42
22181;BME280;11256;50.830;12.834;2024-03-08T13:01:59;97484.72;;;10.32;46.94
22181;BME280;11256;50.830;12.834;2024-03-08T13:07:00;97481.88;;;10.13;45.58
22181;BME280;11256;50.830;12.834;2024-03-08T13:12:01;97475.16;;;10.06;46.03
22181;BME280;11256;50.830;12.834;2024-03-08T13:17:01;97466.75;;;10.07;47.15
22181;BME280;11256;50.830;12.834;2024-03-08T13:22:04;97468.66;;;10.02;46.39
22181;BME280;11256;50.830;12.834;2024-03-08T13:27:05;97463.34;;;9.92;46.31
22181;BME280;11256;50.830;12.834;2024-03-08T13:32:17;97451.06;;;10.04;47.03
22181;BME280;11256;50.830;12.834;2024-03-08T13:37:17;97439.50;;;9.94;47.51
22181;BME280;11256;50.830;12.834;2024-03-08T13:42:17;97439.69;;;10.07;47.50
22181;BME280;11256;50.830;12.834;2024-03-08T13:47:19;97434.72;;;9.81;47.92
22181;BME280;11256;50.830;12.834;2024-03-08T13:52:19;97448.13;;;9.96;47.72
22181;BME280;11256;50.830;12.834;2024-03-08T13:57:19;97437.97;;;9.83;48.24
22181;BME280;11256;50.830;12.834;2024-03-08T14:02:20;97421.16;;;9.86;48.60
22181;BME280;11256;50.830;12.834;2024-03-08T14:07:23;97415.09;;;9.99;48.59
22181;BME280;11256;50.830;12.834;2024-03-08T14:12:23;97419.09;;;10.11;49.21
22181;BME280;11256;50.830;12.834;2024-03-08T14:17:26;97412.44;;;9.94;48.38
22181;BME280;11256;50.830;12.834;2024-03-08T14:22:27;97411.38;;;9.90;48.71
22181;BME280;11256;50.830;12.834;2024-03-08T14:27:28;97418.31;;;10.01;48.78
22181;BME280;11256;50.830;12.834;2024-03-08T14:32:28;97411.16;;;10.20;49.28
22181;BME280;11256;50.830;12.834;2024-03-08T14:37:29;97401.94;;;10.21;49.03
22181;BME280;11256;50.830;12.834;2024-03-08T14:42:29;97403.69;;;10.02;49.09
22181;BME280;11256;50.830;12.834;2024-03-08T14:47:30;97392.72;;;10.22;49.65
22181;BME280;11256;50.830;12.834;2024-03-08T14:52:31;97399.13;;;10.83;51.89
22181;BME280;11256;50.830;12.834;2024-03-08T14:57:31;97391.75;;;10.36;48.91
22181;BME280;11256;50.830;12.834;2024-03-08T15:02:32;97393.31;;;10.19;48.69
22181;BME280;11256;50.830;12.834;2024-03-08T15:07:40;97382.75;;;9.84;48.97
22181;BME280;11256;50.830;12.834;2024-03-08T15:12:40;97390.56;;;10.24;49.87
22181;BME280;11256;50.830;12.834;2024-03-08T15:17:41;97384.34;;;9.85;49.59
22181;BME280;11256;50.830;12.834;2024-03-08T15:22:52;97375.59;;;9.98;49.75
22181;BME280;11256;50.830;12.834;2024-03-08T15:27:55;97376.97;;;9.95;51.53
22181;BME280;11256;50.830;12.834;2024-03-08T15:32:55;97352.66;;;9.57;50.28
22181;BME280;11256;50.830;12.834;2024-03-08T15:38:01;97365.69;;;9.50;50.45
22181;BME280;11256;50.830;12.834;2024-03-08T15:43:01;97359.44;;;9.16;51.28
22181;BME280;11256;50.830;12.834;2024-03-08T15:48:01;97365.34;;;9.18;51.90
22181;BME280;11256;50.830;12.834;2024-03-08T15:53:05;97330.69;;;8.86;51.63
22181;BME280;11256;50.830;12.834;2024-03-08T15:58:05;97350.88;;;8.99;51.68
22181;BME280;11256;50.830;12.834;2024-03-08T16:03:06;97351.41;;;8.96;51.78
22181;BME280;11256;50.830;12.834;2024-03-08T16:08:07;97342.28;;;8.82;51.93
22181;BME280;11256;50.830;12.834;2024-03-08T16:13:15;97325.59;;;8.75;52.38
22181;BME280;11256;50.830;12.834;2024-03-08T16:18:19;97341.59;;;8.61;52.83
22181;BME280;11256;50.830;12.834;2024-03-08T16:23:24;97331.88;;;8.55;53.41
22181;BME280;11256;50.830;12.834;2024-03-08T16:28:25;97329.78;;;8.42;54.01
22181;BME280;11256;50.830;12.834;2024-03-08T16:33:28;97334.34;;;8.47;53.71
22181;BME280;11256;50.830;12.834;2024-03-08T16:38:28;97326.31;;;8.27;54.56
22181;BME280;11256;50.830;12.834;2024-03-08T16:43:29;97322.81;;;8.11;55.10
22181;BME280;11256;50.830;12.834;2024-03-08T16:48:29;97313.41;;;7.99;55.43
22181;BME280;11256;50.830;12.834;2024-03-08T16:53:30;97308.31;;;7.82;55.54
22181;BME280;11256;50.830;12.834;2024-03-08T16:58:34;97317.75;;;7.75;54.98
22181;BME280;11256;50.830;12.834;2024-03-08T17:03:34;97302.66;;;7.69;55.62
22181;BME280;11256;50.830;12.834;2024-03-08T17:08:36;97301.31;;;7.61;55.66
22181;BME280;11256;50.830;12.834;2024-03-08T17:13:37;97306.44;;;7.58;55.58
22181;BME280;11256;50.830;12.834;2024-03-08T17:18:38;97299.97;;;7.54;56.20
22181;BME280;11256;50.830;12.834;2024-03-08T17:23:41;97280.56;;;7.32;56.21
22181;BME280;11256;50.830;12.834;2024-03-08T17:28:42;97301.84;;;7.18;58.19
22181;BME280;11256;50.830;12.834;2024-03-08T17:33:43;97286.47;;;6.99;58.29
22181;BME280;11256;50.830;12.834;2024-03-08T17:38:44;97289.69;;;6.91;58.83
22181;BME280;11256;50.830;12.834;2024-03-08T17:43:46;97284.03;;;6.87;59.12
22181;BME280;11256;50.830;12.834;2024-03-08T17:48:46;97284.84;;;6.88;59.07
22181;BME280;11256;50.830;12.834;2024-03-08T17:53:46;97289.13;;;6.79;59.35
22181;BME280;11256;50.830;12.834;2024-03-08T17:58:49;97268.38;;;6.64;59.91
22181;BME280;11256;50.830;12.834;2024-03-08T18:03:50;97277.53;;;6.63;60.07
22181;BME280;11256;50.830;12.834;2024-03-08T18:08:51;97268.09;;;6.61;59.60
22181;BME280;11256;50.830;12.834;2024-03-08T18:13:52;97267.53;;;6.59;59.80
22181;BME280;11256;50.830;12.834;2024-03-08T18:18:52;97260.00;;;6.56;59.58
22181;BME280;11256;50.830;12.834;2024-03-08T18:23:53;97268.38;;;6.64;59.22
22181;BME280;11256;50.830;12.834;2024-03-08T18:28:53;97261.09;;;6.55;59.88
22181;BME280;11256;50.830;12.834;2024-03-08T18:33:53;97244.09;;;6.49;59.53
22181;BME280;11256;50.830;12.834;2024-03-08T18:38:54;97262.16;;;6.54;59.22
22181;BME280;11256;50.830;12.834;2024-03-08T18:43:54;97249.22;;;6.46;60.00
22181;BME280;11256;50.830;12.834;2024-03-08T18:48:57;97251.88;;;6.41;60.24
22181;BME280;11256;50.830;12.834;2024-03-08T18:53:59;97240.06;;;6.47;59.84
22181;BME280;11256;50.830;12.834;2024-03-08T18:58:59;97241.13;;;6.41;60.26
22181;BME280;11256;50.830;12.834;2024-03-08T19:04:00;97232.47;;;6.29;60.71
22181;BME280;11256;50.830;12.834;2024-03-08T19:09:00;97223.31;;;6.30;60.24
22181;BME280;11256;50.830;12.834;2024-03-08T19:14:02;97243.78;;;6.36;60.08
22181;BME280;11256;50.830;12.834;2024-03-08T19:19:02;97229.78;;;6.29;60.54
22181;BME280;11256;50.830;12.834;2024-03-08T19:24:03;97242.72;;;6.42;60.31
22181;BME280;11256;50.830;12.834;2024-03-08T19:29:04;97225.50;;;6.28;61.13
22181;BME280;11256;50.830;12.834;2024-03-08T19:34:05;97228.16;;;6.23;60.89
22181;BME280;11256;50.830;12.834;2024-03-08T19:39:10;97234.06;;;6.25;60.88
22181;BME280;11256;50.830;12.834;2024-03-08T19:44:10;97231.94;;;6.22;61.23
22181;BME280;11256;50.830;12.834;2024-03-08T19:49:12;97220.59;;;6.15;61.35
22181;BME280;11256;50.830;12.834;2024-03-08T19:54:13;97216.25;;;6.09;61.51
22181;BME280;11256;50.830;12.834;2024-03-08T19:59:14;97214.59;;;5.98;62.01
22181;BME280;11256;50.830;12.834;2024-03-08T20:04:15;97218.88;;;5.89;62.19
22181;BME280;11256;50.830;12.834;2024-03-08T20:09:16;97208.63;;;5.81;62.42
22181;BME280;11256;50.830;12.834;2024-03-08T20:14:16;97208.03;;;5.74;63.07
22181;BME280;11256;50.830;12.834;2024-03-08T20:19:17;97219.28;;;5.71;62.41
22181;BME280;11256;50.830;12.834;2024-03-08T20:24:18;97200.09;;;5.52;62.58
22181;BME280;11256;50.830;12.834;2024-03-08T20:29:18;97198.16;;;5.43;63.08
22181;BME280;11256;50.830;12.834;2024-03-08T20:34:19;97194.91;;;5.36;63.04
22181;BME280;11256;50.830;12.834;2024-03-08T20:39:19;97212.34;;;5.33;63.30
22181;BME280;11256;50.830;12.834;2024-03-08T20:44:21;97198.06;;;5.28;62.93
22181;BME280;11256;50.830;12.834;2024-03-08T20:49:21;97193.19;;;5.20;63.02
22181;BME280;11256;50.830;12.834;2024-03-08T20:54:22;97193.13;;;5.10;63.50
22181;BME280;11256;50.830;12.834;2024-03-08T20:59:22;97184.41;;;4.93;63.70
22181;BME280;11256;50.830;12.834;2024-03-08T21:04:22;97195.22;;;5.03;62.73
22181;BME280;11256;50.830;12.834;2024-03-08T21:09:23;97175.84;;;5.01;63.22
22181;BME280;11256;50.830;12.834;2024-03-08T21:14:23;97160.41;;;4.81;63.69
22181;BME280;11256;50.830;12.834;2024-03-08T21:19:23;97164.47;;;4.84;63.49
22181;BME280;11256;50.830;12.834;2024-03-08T21:24:24;97150.25;;;4.83;63.56
22181;BME280;11256;50.830;12.834;2024-03-08T21:29:24;97141.88;;;4.75;63.92
22181;BME280;11256;50.830;12.834;2024-03-08T21:34:25;97128.47;;;4.75;63.45
22181;BME280;11256;50.830;12.834;2024-03-08T21:39:25;97135.41;;;4.71;64.26
22181;BME280;11256;50.830;12.834;2024-03-08T21:44:28;97121.09;;;4.60;64.09
22181;BME280;11256;50.830;12.834;2024-03-08T21:49:29;97123.50;;;4.62;64.33
22181;BME280;11256;50.830;12.834;2024-03-08T21:54:29;97102.44;;;4.44;64.52
22181;BME280;11256;50.830;12.834;2024-03-08T21:59:30;97107.38;;;4.57;64.42
22181;BME280;11256;50.830;12.834;2024-03-08T22:04:30;97110.25;;;4.45;64.54
22181;BME280;11256;50.830;12.834;2024-03-08T22:09:31;97106.44;;;4.41;64.52
22181;BME280;11256;50.830;12.834;2024-03-08T22:14:31;97113.72;;;4.46;63.88
22181;BME280;11256;50.830;12.834;2024-03-08T22:19:33;97104.00;;;4.40;64.10
22181;BME280;11256;50.830;12.834;2024-03-08T22:24:33;97112.88;;;4.40;64.41
22181;BME280;11256;50.830;12.834;2024-03-08T22:29:34;97091.63;;;4.34;64.40
22181;BME280;11256;50.830;12.834;2024-03-08T22:34:34;97112.06;;;4.40;64.54
22181;BME280;11256;50.830;12.834;2024-03-08T22:39:35;97116.59;;;4.34;63.90
22181;BME280;11256;50.830;12.834;2024-03-08T22:44:36;97100.50;;;4.34;64.18
22181;BME280;11256;50.830;12.834;2024-03-08T22:49:37;97106.66;;;4.35;64.23
22181;BME280;11256;50.830;12.834;2024-03-08T22:54:37;97108.84;;;4.38;63.94
22181;BME280;11256;50.830;12.834;2024-03-08T22:59:37;97099.69;;;4.34;64.36
22181;BME280;11256;50.830;12.834;2024-03-08T23:04:38;97093.72;;;4.27;64.61
22181;BME280;11256;50.830;12.834;2024-03-08T23:09:39;97079.78;;;4.25;65.14
22181;BME280;11256;50.830;12.834;2024-03-08T23:14:42;97062.06;;;4.24;64.60
22181;BME280;11256;50.830;12.834;2024-03-08T23:19:43;97067.94;;;4.21;65.50
22181;BME280;11256;50.830;12.834;2024-03-08T23:24:44;97060.16;;;4.19;65.51
22181;BME280;11256;50.830;12.834;2024-03-08T23:29:44;97052.34;;;4.18;65.37
22181;BME280;11256;50.830;12.834;2024-03-08T23:34:45;97048.88;;;4.17;65.25
22181;BME280;11256;50.830;12.834;2024-03-08T23:39:45;97055.59;;;4.20;65.85
22181;BME280;11256;50.830;12.834;2024-03-08T23:44:45;97057.22;;;4.21;66.19
22181;BME280;11256;50.830;12.834;2024-03-08T23:49:46;97049.13;;;4.16;65.87
22181;BME280;11256;50.830;12.834;2024-03-08T23:54:47;97046.44;;;4.16;65.83
22181;BME280;11256;50.830;12.834;2024-03-08T23:59:48;97038.91;;;4.13;65.54
